Time;durP1;ratioP1;P1;durP2;ratioP2;P2;SDS_P1;SDS_P2;PMS_P1;PMS_P2;Temp;Humidity;BMP_temperature;BMP_pressure;BME280_temperature;BME280_humidity;BME280_pressure;Samples;Min_cycle;Max_cycle;Signal;HPM_P1;HPM_P2
2023/10/03 00:00:24;;;;;;;;;;;20.70;76.90;;;;;;5091324;28;19920;-71
2023/10/03 00:02:54;;;;;;;;;;;20.70;76.90;;;;;;5090847;28;19924;-71
2023/10/03 00:05:22;;;;;;;;;;;20.70;76.90;;;;;;5090759;28;19920;-70
2023/10/03 00:07:49;;;;;;;;;;;20.60;76.90;;;;;;5091138;28;20006;-70
2023/10/03 00:10:14;;;;;;;;;;;20.70;76.90;;;;;;5090651;28;19978;-71
2023/10/03 00:12:40;;;;;;;;;;;20.70;77.70;;;;;;5090871;28;19924;-70
2023/10/03 00:15:08;;;;;;;;;;;20.70;76.90;;;;;;5092170;28;19973;-70
2023/10/03 00:17:34;;;;;;;;;;;20.70;76.90;;;;;;5092029;28;20024;-70
2023/10/03 00:20:00;;;;;;;;;;;20.70;76.90;;;;;;5090617;28;19920;-71
2023/10/03 00:22:26;;;;;;;;;;;20.60;76.90;;;;;;5092443;28;19920;-70
2023/10/03 00:24:51;;;;;;;;;;;20.70;76.90;;;;;;5128001;28;19931;-71
2023/10/03 00:27:17;;;;;;;;;;;20.60;76.90;;;;;;5093966;28;20010;-70
2023/10/03 00:29:43;;;;;;;;;;;20.60;76.80;;;;;;5112217;28;19920;-70
2023/10/03 00:32:09;;;;;;;;;;;20.60;76.80;;;;;;5097371;28;19919;-70
2023/10/03 00:34:36;;;;;;;;;;;20.60;76.80;;;;;;5115925;28;19931;-70
2023/10/03 00:37:02;;;;;;;;;;;20.60;76.80;;;;;;5115914;28;20379;-70
2023/10/03 00:39:27;;;;;;;;;;;20.60;76.80;;;;;;5131936;27;19968;-70
2023/10/03 00:41:53;;;;;;;;;;;20.60;76.80;;;;;;5131648;27;19973;-70
2023/10/03 00:44:19;;;;;;;;;;;20.60;76.80;;;;;;5115816;28;19924;-71
2023/10/03 00:46:45;;;;;;;;;;;20.60;76.80;;;;;;5115570;28;19930;-70
2023/10/03 00:49:14;;;;;;;;;;;20.60;76.80;;;;;;5115602;28;19919;-70
2023/10/03 00:51:41;;;;;;;;;;;20.60;76.80;;;;;;5097277;28;19920;-70
2023/10/03 00:54:06;;;;;;;;;;;20.60;76.80;;;;;;5115512;28;19920;-70
2023/10/03 00:56:32;;;;;;;;;;;20.60;76.80;;;;;;5097361;28;19973;-70
2023/10/03 00:58:57;;;;;;;;;;;20.60;76.80;;;;;;5097461;28;19976;-70
2023/10/03 01:01:27;;;;;;;;;;;20.60;76.80;;;;;;5097120;28;19919;-71
2023/10/03 01:03:55;;;;;;;;;;;20.60;76.80;;;;;;5096955;28;20324;-70
2023/10/03 01:06:21;;;;;;;;;;;20.60;76.80;;;;;;5096986;28;19920;-70
2023/10/03 01:08:48;;;;;;;;;;;20.60;76.70;;;;;;5097230;28;19919;-70
2023/10/03 01:11:15;;;;;;;;;;;20.60;76.70;;;;;;5097174;28;19923;-70
2023/10/03 01:13:42;;;;;;;;;;;20.60;76.70;;;;;;5097188;28;20003;-71
2023/10/03 01:16:08;;;;;;;;;;;20.60;76.70;;;;;;5097061;28;20290;-70
2023/10/03 01:18:37;;;;;;;;;;;20.60;76.70;;;;;;5097087;28;20073;-71
2023/10/03 01:21:05;;;;;;;;;;;20.60;76.70;;;;;;5115038;28;19996;-71
2023/10/03 01:23:34;;;;;;;;;;;20.60;76.70;;;;;;5114714;28;20291;-70
2023/10/03 01:25:59;;;;;;;;;;;20.60;76.70;;;;;;5096856;28;19919;-70
2023/10/03 01:28:25;;;;;;;;;;;20.60;76.70;;;;;;5096911;28;19920;-71
2023/10/03 01:30:51;;;;;;;;;;;20.60;76.70;;;;;;5114804;28;19947;-70
2023/10/03 01:33:17;;;;;;;;;;;20.50;76.60;;;;;;5114692;28;19927;-71
2023/10/03 01:35:42;;;;;;;;;;;20.60;76.70;;;;;;5114772;28;19919;-70
2023/10/03 01:38:08;;;;;;;;;;;20.60;76.60;;;;;;5096743;28;19920;-70
2023/10/03 01:40:33;;;;;;;;;;;20.50;76.60;;;;;;5096610;28;19964;-70
2023/10/03 01:43:00;;;;;;;;;;;20.60;76.60;;;;;;5096077;28;19924;-70
2023/10/03 01:45:26;;;;;;;;;;;20.50;76.50;;;;;;5114766;28;19927;-70
2023/10/03 01:47:52;;;;;;;;;;;20.50;76.50;;;;;;5096511;28;20262;-70
2023/10/03 01:50:19;;;;;;;;;;;20.50;76.50;;;;;;5096161;28;19919;-70
2023/10/03 01:52:47;;;;;;;;;;;20.50;76.50;;;;;;5096414;28;19923;-70
2023/10/03 01:55:13;;;;;;;;;;;20.50;76.50;;;;;;5096218;28;19926;-70
2023/10/03 01:57:39;;;;;;;;;;;20.50;76.40;;;;;;5095913;28;19935;-70
2023/10/03 02:00:11;;;;;;;;;;;20.50;76.40;;;;;;5096259;28;19920;-70
2023/10/03 02:02:36;;;;;;;;;;;20.50;76.40;;;;;;5095935;28;19920;-70
2023/10/03 02:05:03;;;;;;;;;;;20.50;76.40;;;;;;5114249;28;19931;-70
2023/10/03 02:07:28;;;;;;;;;;;20.50;76.40;;;;;;5114069;28;19920;-70
2023/10/03 02:09:55;;;;;;;;;;;20.50;76.40;;;;;;5095825;28;20259;-70
2023/10/03 02:12:21;;;;;;;;;;;20.50;76.40;;;;;;5096029;28;20015;-70
2023/10/03 02:14:49;;;;;;;;;;;20.50;76.30;;;;;;5096061;28;20465;-70
2023/10/03 02:17:16;;;;;;;;;;;20.50;76.30;;;;;;5095877;28;20290;-71
2023/10/03 02:19:43;;;;;;;;;;;20.50;76.30;;;;;;5095445;28;19919;-71
2023/10/03 02:22:11;;;;;;;;;;;20.50;76.30;;;;;;5113784;28;20371;-70
2023/10/03 02:24:37;;;;;;;;;;;20.50;76.20;;;;;;5095114;28;20298;-71
2023/10/03 02:27:06;;;;;;;;;;;20.50;76.20;;;;;;5129834;27;20351;-70
2023/10/03 02:29:32;;;;;;;;;;;20.50;76.20;;;;;;5095375;28;19920;-70
2023/10/03 02:31:58;;;;;;;;;;;20.50;76.20;;;;;;5095410;28;19988;-70
2023/10/03 02:34:23;;;;;;;;;;;20.50;76.20;;;;;;5113562;28;20363;-71
2023/10/03 02:36:49;;;;;;;;;;;20.40;76.10;;;;;;5129665;27;19972;-70
2023/10/03 02:39:18;;;;;;;;;;;20.50;76.20;;;;;;5113363;28;20383;-70
2023/10/03 02:41:44;;;;;;;;;;;20.50;76.10;;;;;;5095245;28;19924;-70
2023/10/03 02:44:09;;;;;;;;;;;20.50;76.20;;;;;;5113303;28;19946;-70
2023/10/03 02:46:35;;;;;;;;;;;20.50;76.10;;;;;;5095376;28;19978;-70
2023/10/03 02:49:00;;;;;;;;;;;20.40;76.10;;;;;;5113377;28;19936;-70
2023/10/03 02:51:26;;;;;;;;;;;20.50;76.10;;;;;;5095347;28;19926;-70
2023/10/03 02:53:51;;;;;;;;;;;20.40;76.00;;;;;;5112714;28;19920;-70
2023/10/03 02:56:17;;;;;;;;;;;20.50;76.10;;;;;;5095227;28;19972;-70
2023/10/03 02:58:43;;;;;;;;;;;20.40;76.00;;;;;;5129346;27;19920;-70
2023/10/03 03:01:09;;;;;;;;;;;20.40;76.00;;;;;;5113234;28;19927;-70
2023/10/03 03:03:34;;;;;;;;;;;20.50;76.10;;;;;;5094904;28;19934;-70
2023/10/03 03:06:02;;;;;;;;;;;20.40;76.00;;;;;;5095139;28;19920;-70
2023/10/03 03:08:29;;;;;;;;;;;20.40;76.00;;;;;;5094680;28;19924;-70
2023/10/03 03:10:56;;;;;;;;;;;20.50;76.10;;;;;;5094706;28;19924;-70
2023/10/03 03:13:23;;;;;;;;;;;20.60;75.90;;;;;;5094776;28;19920;-70
2023/10/03 03:15:53;;;;;;;;;;;20.80;75.50;;;;;;5094959;28;20321;-70
2023/10/03 03:18:20;;;;;;;;;;;20.80;75.20;;;;;;5094741;28;19923;-71
2023/10/03 03:20:49;;;;;;;;;;;20.80;75.00;;;;;;5094732;28;19927;-70
2023/10/03 03:23:16;;;;;;;;;;;20.90;74.80;;;;;;5094425;28;19924;-71
2023/10/03 03:25:42;;;;;;;;;;;20.90;74.70;;;;;;5112902;28;19924;-70
2023/10/03 03:28:13;;;;;;;;;;;20.90;74.60;;;;;;5094894;28;19943;-70
2023/10/03 03:30:45;;;;;;;;;;;21.00;74.50;;;;;;5094530;28;20006;-70
2023/10/03 03:33:11;;;;;;;;;;;21.00;74.30;;;;;;5094550;28;19933;-70
2023/10/03 03:35:38;;;;;;;;;;;21.00;74.20;;;;;;5094610;28;19920;-70
2023/10/03 03:38:05;;;;;;;;;;;21.10;74.10;;;;;;5094780;28;20351;-70
2023/10/03 03:40:34;;;;;;;;;;;21.10;74.00;;;;;;5094658;28;19919;-70
2023/10/03 03:43:00;;;;;;;;;;;21.10;73.90;;;;;;5094649;28;20286;-70
2023/10/03 03:45:26;;;;;;;;;;;21.10;73.80;;;;;;5112846;28;20331;-70
2023/10/03 03:47:52;;;;;;;;;;;21.10;73.70;;;;;;5112753;28;19920;-71
2023/10/03 03:50:18;;;;;;;;;;;21.10;73.70;;;;;;5094358;28;20286;-70
2023/10/03 03:52:43;;;;;;;;;;;21.10;73.50;;;;;;5094462;28;20278;-70
2023/10/03 03:55:10;;;;;;;;;;;21.20;73.60;;;;;;5094569;28;19972;-70
2023/10/03 03:57:35;;;;;;;;;;;21.10;73.50;;;;;;5112512;28;19920;-70
2023/10/03 04:00:19;;;;;;;;;;;21.10;73.50;;;;;;5112632;28;19919;-70
2023/10/03 04:02:46;;;;;;;;;;;21.10;73.50;;;;;;5112445;28;20298;-71
2023/10/03 04:05:12;;;;;;;;;;;21.10;73.50;;;;;;5094141;28;19924;-70
2023/10/03 04:07:38;;;;;;;;;;;21.10;73.50;;;;;;5081450;28;19920;-70
2023/10/03 04:10:06;;;;;;;;;;;21.10;73.50;;;;;;5098397;28;19926;-71
2023/10/03 04:12:38;;;;;;;;;;;21.10;73.50;;;;;;5098325;28;20154;-70
2023/10/03 04:15:05;;;;;;;;;;;21.10;73.60;;;;;;5098042;28;19931;-70
2023/10/03 04:17:33;;;;;;;;;;;21.00;73.50;;;;;;5097852;28;20011;-71
2023/10/03 04:19:58;;;;;;;;;;;21.00;73.50;;;;;;5097863;28;19920;-70
2023/10/03 04:22:24;;;;;;;;;;;21.00;73.50;;;;;;5132030;27;19972;-70
2023/10/03 04:24:49;;;;;;;;;;;21.00;73.50;;;;;;5097781;28;19931;-70
2023/10/03 04:27:15;;;;;;;;;;;21.00;73.50;;;;;;5115965;28;19924;-70
2023/10/03 04:29:41;;;;;;;;;;;21.00;73.50;;;;;;5097801;28;20086;-70
2023/10/03 04:32:07;;;;;;;;;;;21.00;73.60;;;;;;5097945;28;19920;-71
2023/10/03 04:34:33;;;;;;;;;;;21.00;73.60;;;;;;5097643;28;19965;-70
2023/10/03 04:36:59;;;;;;;;;;;21.00;73.60;;;;;;5131686;27;19963;-70
2023/10/03 04:39:24;;;;;;;;;;;21.00;73.60;;;;;;5097800;28;19924;-71
2023/10/03 04:41:50;;;;;;;;;;;21.00;73.60;;;;;;5115986;28;19927;-70
2023/10/03 04:44:17;;;;;;;;;;;21.00;73.60;;;;;;5097497;28;20379;-70
2023/10/03 04:46:44;;;;;;;;;;;21.00;73.50;;;;;;5115681;28;19927;-70
2023/10/03 04:49:10;;;;;;;;;;;21.00;73.60;;;;;;5097361;28;19963;-71
2023/10/03 04:51:35;;;;;;;;;;;21.00;73.50;;;;;;5115583;28;19959;-70
2023/10/03 04:54:01;;;;;;;;;;;21.00;73.60;;;;;;5115934;28;19924;-70
2023/10/03 04:56:26;;;;;;;;;;;20.90;73.60;;;;;;5097311;28;19920;-71
2023/10/03 04:58:52;;;;;;;;;;;21.00;73.60;;;;;;5097439;28;19968;-70
2023/10/03 05:01:18;;;;;;;;;;;21.00;73.50;;;;;;5097538;28;19965;-70
2023/10/03 05:03:43;;;;;;;;;;;21.00;73.50;;;;;;5115197;28;20379;-70
2023/10/03 05:06:11;;;;;;;;;;;21.00;73.50;;;;;;5097321;28;19920;-70
2023/10/03 05:08:37;;;;;;;;;;;21.00;73.40;;;;;;5097188;28;19927;-70
2023/10/03 05:11:03;;;;;;;;;;;21.00;73.40;;;;;;5097228;28;19920;-70
2023/10/03 05:13:28;;;;;;;;;;;21.00;73.40;;;;;;5115163;28;19939;-71
2023/10/03 05:15:54;;;;;;;;;;;21.00;73.40;;;;;;5096874;28;20398;-70
2023/10/03 05:18:19;;;;;;;;;;;20.90;73.40;;;;;;5130853;27;20061;-71
2023/10/03 05:20:45;;;;;;;;;;;21.00;73.50;;;;;;5097000;28;19926;-70
2023/10/03 05:23:15;;;;;;;;;;;20.90;73.50;;;;;;5095635;28;19928;-70
2023/10/03 05:25:43;;;;;;;;;;;21.00;73.50;;;;;;5096576;28;19920;-71
2023/10/03 05:28:11;;;;;;;;;;;20.90;73.50;;;;;;5096528;28;19930;-70
2023/10/03 05:30:38;;;;;;;;;;;20.90;73.60;;;;;;5096408;28;19927;-70
2023/10/03 05:33:06;;;;;;;;;;;20.90;73.60;;;;;;5114795;28;20443;-70
2023/10/03 05:35:31;;;;;;;;;;;20.90;73.60;;;;;;5112985;28;20389;-72
2023/10/03 05:37:57;;;;;;;;;;;20.90;73.70;;;;;;5113594;28;19920;-71
2023/10/03 05:40:23;;;;;;;;;;;20.90;73.90;;;;;;5093633;28;20398;-71
2023/10/03 05:42:49;;;;;;;;;;;20.90;74.10;;;;;;5094225;28;19963;-71
2023/10/03 05:45:15;;;;;;;;;;;20.90;74.10;;;;;;5094017;28;19927;-70
2023/10/03 05:47:42;;;;;;;;;;;20.90;74.10;;;;;;5094585;28;19920;-71
2023/10/03 05:50:09;;;;;;;;;;;20.80;74.10;;;;;;5093245;28;19924;-71
2023/10/03 05:52:35;;;;;;;;;;;20.90;74.30;;;;;;5093396;28;19932;-72
2023/10/03 05:55:01;;;;;;;;;;;20.90;74.40;;;;;;5092984;28;19929;-69
2023/10/03 05:57:26;;;;;;;;;;;20.80;74.30;;;;;;5089487;28;19923;-73
2023/10/03 05:59:52;;;;;;;;;;;20.90;74.40;;;;;;5111200;27;19919;-73
2023/10/03 06:02:17;;;;;;;;;;;20.90;74.50;;;;;;5107223;28;19920;-73
2023/10/03 06:04:43;;;;;;;;;;;20.80;74.50;;;;;;5109312;28;19930;-73
2023/10/03 06:07:08;;;;;;;;;;;20.90;74.60;;;;;;5091556;27;20021;-69
2023/10/03 06:09:33;;;;;;;;;;;20.80;74.50;;;;;;5085058;27;19924;-72
2023/10/03 06:11:59;;;;;;;;;;;20.90;74.60;;;;;;5074217;27;20367;-71
2023/10/03 06:14:25;;;;;;;;;;;20.90;74.60;;;;;;5090472;27;20500;-76
2023/10/03 06:16:50;;;;;;;;;;;20.90;74.70;;;;;;5112083;27;19958;-74
2023/10/03 06:19:18;;;;;;;;;;;20.90;74.70;;;;;;5087348;28;19926;-75
2023/10/03 06:21:44;;;;;;;;;;;20.90;74.60;;;;;;5085846;28;20381;-74
2023/10/03 06:24:10;;;;;;;;;;;20.90;74.60;;;;;;5084825;28;19975;-80
2023/10/03 06:26:36;;;;;;;;;;;20.90;74.70;;;;;;5087545;28;19923;-73
2023/10/03 06:29:02;;;;;;;;;;;20.90;74.70;;;;;;5078198;28;20299;-73
2023/10/03 06:31:27;;;;;;;;;;;21.00;74.70;;;;;;5063594;27;19934;-76
2023/10/03 06:33:53;;;;;;;;;;;21.00;74.60;;;;;;5070179;28;19950;-73
2023/10/03 06:36:18;;;;;;;;;;;21.00;74.60;;;;;;5067658;28;19920;-74
2023/10/03 06:38:44;;;;;;;;;;;21.00;75.40;;;;;;5082002;28;20303;-72
2023/10/03 06:41:09;;;;;;;;;;;21.00;74.60;;;;;;5097707;27;19920;-72
2023/10/03 06:43:35;;;;;;;;;;;21.00;74.60;;;;;;5077131;27;20291;-75
2023/10/03 06:46:00;;;;;;;;;;;21.00;74.60;;;;;;5075705;28;19923;-70
2023/10/03 06:48:26;;;;;;;;;;;21.00;74.60;;;;;;5081246;28;20328;-70
2023/10/03 06:50:52;;;;;;;;;;;21.00;74.60;;;;;;5096256;28;19924;-72
2023/10/03 06:53:18;;;;;;;;;;;21.00;74.60;;;;;;5091866;28;19931;-70
2023/10/03 06:55:44;;;;;;;;;;;21.00;74.70;;;;;;5080390;28;19920;-71
2023/10/03 06:58:10;;;;;;;;;;;21.10;74.80;;;;;;5097897;28;19927;-75
2023/10/03 07:00:36;;;;;;;;;;;21.10;74.80;;;;;;5077928;28;19930;-76
2023/10/03 07:03:03;;;;;;;;;;;21.10;74.80;;;;;;5099930;27;19923;-76
2023/10/03 07:05:29;;;;;;;;;;;21.10;74.80;;;;;;5079123;28;20088;-75
2023/10/03 07:07:54;;;;;;;;;;;21.10;74.80;;;;;;5084543;28;20407;-71
2023/10/03 07:10:21;;;;;;;;;;;21.10;74.80;;;;;;5079170;28;20592;-70
2023/10/03 07:12:47;;;;;;;;;;;21.10;74.80;;;;;;5080728;28;19973;-68
2023/10/03 07:15:13;;;;;;;;;;;21.10;74.80;;;;;;5087199;28;19978;-71
2023/10/03 07:17:38;;;;;;;;;;;21.10;74.80;;;;;;5079951;28;19924;-69
2023/10/03 07:20:07;;;;;;;;;;;21.10;74.90;;;;;;5077154;28;19939;-71
2023/10/03 07:22:33;;;;;;;;;;;21.10;74.90;;;;;;5093886;28;19950;-70
2023/10/03 07:24:59;;;;;;;;;;;21.10;74.90;;;;;;5079321;28;19928;-71
2023/10/03 07:27:24;;;;;;;;;;;21.10;74.90;;;;;;5095144;28;19981;-71
2023/10/03 07:29:50;;;;;;;;;;;21.20;74.90;;;;;;5076631;28;19928;-73
2023/10/03 07:32:16;;;;;;;;;;;21.10;74.90;;;;;;5091071;28;19920;-73
2023/10/03 07:34:43;;;;;;;;;;;21.10;74.90;;;;;;5074070;28;19919;-73
2023/10/03 07:37:10;;;;;;;;;;;21.10;74.80;;;;;;5083889;28;19923;-74
2023/10/03 07:39:35;;;;;;;;;;;21.10;74.80;;;;;;5061433;27;20374;-73
2023/10/03 07:42:04;;;;;;;;;;;21.10;74.70;;;;;;5075118;27;19924;-69
2023/10/03 07:44:30;;;;;;;;;;;21.10;74.80;;;;;;5067568;27;19931;-70
2023/10/03 07:46:56;;;;;;;;;;;21.20;74.80;;;;;;5053885;28;19924;-68
2023/10/03 07:49:22;;;;;;;;;;;21.10;74.80;;;;;;5111470;27;20357;-70
2023/10/03 07:51:50;;;;;;;;;;;21.10;74.80;;;;;;5086045;28;19923;-69
2023/10/03 07:54:19;;;;;;;;;;;21.10;74.90;;;;;;5074511;27;19928;-69
2023/10/03 07:56:48;;;;;;;;;;;21.10;74.80;;;;;;5082977;28;19928;-69
2023/10/03 07:59:14;;;;;;;;;;;21.10;75.10;;;;;;5086668;27;19927;-73
2023/10/03 08:01:40;;;;;;;;;;;21.10;74.80;;;;;;5079661;28;19919;-71
2023/10/03 08:04:08;;;;;;;;;;;21.20;74.90;;;;;;5100712;27;20307;-70
2023/10/03 08:06:34;;;;;;;;;;;21.20;74.90;;;;;;5071779;27;20395;-70
2023/10/03 08:09:00;;;;;;;;;;;21.20;74.90;;;;;;5087955;27;20019;-69
2023/10/03 08:11:30;;;;;;;;;;;21.20;74.90;;;;;;5089907;27;20401;-72
2023/10/03 08:13:56;;;;;;;;;;;21.20;74.90;;;;;;5087316;27;19934;-71
2023/10/03 08:16:22;;;;;;;;;;;21.10;74.80;;;;;;5057606;28;19919;-69
2023/10/03 08:18:57;;;;;;;;;;;21.10;74.80;;;;;;5113516;27;19923;-72
2023/10/03 08:21:27;;;;;;;;;;;21.10;74.80;;;;;;5101923;27;20387;-69
2023/10/03 08:23:53;;;;;;;;;;;21.10;74.90;;;;;;5086433;27;19934;-68
2023/10/03 08:26:21;;;;;;;;;;;21.20;75.00;;;;;;5100742;27;19924;-71
2023/10/03 08:28:58;;;;;;;;;;;21.10;75.00;;;;;;5099607;27;19928;-68
2023/10/03 08:31:26;;;;;;;;;;;21.20;75.10;;;;;;5086972;28;19928;-68
2023/10/03 08:33:55;;;;;;;;;;;21.20;75.80;;;;;;5081646;27;20018;-72
2023/10/03 08:36:22;;;;;;;;;;;21.20;75.10;;;;;;5098340;27;19928;-71
2023/10/03 08:38:48;;;;;;;;;;;21.20;75.10;;;;;;5082704;28;20002;-71
2023/10/03 08:41:20;;;;;;;;;;;21.20;75.10;;;;;;5085534;27;20073;-71
2023/10/03 08:43:53;;;;;;;;;;;21.20;75.00;;;;;;5103596;27;19923;-71
2023/10/03 08:46:19;;;;;;;;;;;21.20;75.00;;;;;;5084453;28;19924;-71
2023/10/03 08:48:45;;;;;;;;;;;21.20;74.90;;;;;;5079307;28;20056;-74
2023/10/03 08:51:13;;;;;;;;;;;21.20;75.60;;;;;;5079331;28;20375;-69
2023/10/03 08:53:40;;;;;;;;;;;21.20;74.80;;;;;;5080247;27;19928;-71
2023/10/03 08:56:08;;;;;;;;;;;21.20;74.80;;;;;;5101822;27;20630;-69
2023/10/03 08:58:34;;;;;;;;;;;21.30;74.90;;;;;;5080411;28;19924;-69
2023/10/03 09:00:59;;;;;;;;;;;21.30;75.00;;;;;;5082835;28;19924;-70
2023/10/03 09:03:29;;;;;;;;;;;21.30;74.90;;;;;;5099981;27;20374;-70
2023/10/03 09:05:58;;;;;;;;;;;21.40;75.00;;;;;;5095631;27;20505;-69
2023/10/03 09:08:25;;;;;;;;;;;21.40;74.90;;;;;;5081423;27;19980;-71
2023/10/03 09:10:52;;;;;;;;;;;21.40;75.60;;;;;;5089362;27;19963;-69
2023/10/03 09:13:23;;;;;;;;;;;21.40;74.80;;;;;;5099109;27;20463;-71
2023/10/03 09:15:50;;;;;;;;;;;21.40;74.80;;;;;;5093920;27;19930;-70
2023/10/03 09:18:21;;;;;;;;;;;21.50;74.90;;;;;;5096662;27;19982;-72
2023/10/03 09:20:49;;;;;;;;;;;21.50;74.90;;;;;;5083610;27;19924;-77
2023/10/03 09:23:17;;;;;;;;;;;21.40;74.90;;;;;;5079228;28;19964;-72
2023/10/03 09:25:48;;;;;;;;;;;21.40;74.90;;;;;;5085708;27;19998;-70
2023/10/03 09:28:17;;;;;;;;;;;21.40;75.00;;;;;;5103152;27;19924;-69
2023/10/03 09:30:43;;;;;;;;;;;21.40;75.00;;;;;;5106648;27;20279;-70
2023/10/03 09:33:09;;;;;;;;;;;21.40;75.10;;;;;;5083595;27;19972;-71
2023/10/03 09:35:36;;;;;;;;;;;21.40;75.20;;;;;;5101370;27;19923;-71
2023/10/03 09:38:06;;;;;;;;;;;21.40;75.20;;;;;;5093195;27;21171;-72
2023/10/03 09:43:27;;;;;;;;;;;21.30;75.10;;;;;;5094532;27;19920;-69
2023/10/03 09:45:56;;;;;;;;;;;21.30;75.10;;;;;;5105819;27;20302;-69
2023/10/03 09:48:24;;;;;;;;;;;21.30;75.20;;;;;;5084548;28;20326;-70
2023/10/03 09:50:53;;;;;;;;;;;21.30;75.10;;;;;;5118917;27;19920;-69
2023/10/03 09:53:19;;;;;;;;;;;21.30;75.10;;;;;;5080031;28;20017;-69
2023/10/03 09:55:47;;;;;;;;;;;21.30;75.10;;;;;;5082710;28;20765;-71
2023/10/03 09:58:21;;;;;;;;;;;21.30;75.10;;;;;;5114511;27;19929;-70
2023/10/03 10:00:51;;;;;;;;;;;21.30;75.00;;;;;;5077584;28;19924;-69
2023/10/03 10:03:19;;;;;;;;;;;21.20;75.00;;;;;;5076752;28;19935;-70
2023/10/03 10:05:52;;;;;;;;;;;21.30;75.10;;;;;;5081910;28;19929;-70
2023/10/03 10:08:25;;;;;;;;;;;21.30;75.10;;;;;;5080996;28;19937;-70
2023/10/03 10:11:09;;;;;;;;;;;21.30;75.00;;;;;;5113587;27;20450;-70
2023/10/03 10:13:37;;;;;;;;;;;21.30;75.00;;;;;;5073998;28;20374;-70
2023/10/03 10:26:59;;;;;;;;;;;21.30;74.30;;;;;;5064212;28;19920;-70
2023/10/03 10:29:25;;;;;;;;;;;21.30;74.30;;;;;;5048051;28;19925;-68
2023/10/03 10:31:59;;;;;;;;;;;21.20;74.20;;;;;;5049473;28;19957;-67
2023/10/03 10:37:09;;;;;;;;;;;21.20;73.60;;;;;;5075114;27;19949;-69
2023/10/03 10:40:09;;;;;;;;;;;21.20;73.50;;;;;;5088905;28;19929;-69
2023/10/03 10:42:54;;;;;;;;;;;21.20;73.60;;;;;;5075475;28;19938;-70
2023/10/03 10:45:20;;;;;;;;;;;21.20;73.50;;;;;;5074227;28;19948;-70
2023/10/03 10:47:49;;;;;;;;;;;21.20;73.10;;;;;;5102907;28;19931;-71
2023/10/03 10:50:17;;;;;;;;;;;21.20;73.10;;;;;;5069869;28;20030;-70
2023/10/03 10:52:57;;;;;;;;;;;21.20;73.20;;;;;;5071826;28;19920;-71
2023/10/03 10:55:23;;;;;;;;;;;21.30;73.30;;;;;;5070968;28;19981;-77
2023/10/03 10:58:07;;;;;;;;;;;21.30;73.10;;;;;;5069534;28;19925;-74
2023/10/03 11:00:33;;;;;;;;;;;21.30;73.10;;;;;;5074036;28;19960;-73
2023/10/03 11:03:00;;;;;;;;;;;21.30;72.90;;;;;;5079597;28;19924;-70
2023/10/03 11:05:30;;;;;;;;;;;21.40;72.90;;;;;;5072506;28;19929;-76
2023/10/03 11:07:56;;;;;;;;;;;21.40;72.80;;;;;;5074463;28;19929;-76
2023/10/03 11:10:25;;;;;;;;;;;21.40;72.80;;;;;;5080616;28;19921;-75
2023/10/03 11:12:59;;;;;;;;;;;21.40;72.70;;;;;;5072120;28;19924;-67
2023/10/03 11:15:26;;;;;;;;;;;21.40;72.50;;;;;;5077955;28;20035;-68
2023/10/03 11:17:51;;;;;;;;;;;21.40;72.40;;;;;;5074420;28;19971;-68
2023/10/03 11:20:17;;;;;;;;;;;21.40;72.40;;;;;;5102860;28;19971;-69
2023/10/03 11:22:44;;;;;;;;;;;21.50;72.40;;;;;;5074287;28;19939;-67
2023/10/03 11:25:11;;;;;;;;;;;21.50;72.30;;;;;;5103153;28;19928;-70
2023/10/03 11:27:36;;;;;;;;;;;21.50;72.40;;;;;;5100627;28;20384;-69
2023/10/03 11:30:22;;;;;;;;;;;21.50;72.50;;;;;;5103014;28;19929;-68
2023/10/03 11:32:48;;;;;;;;;;;21.50;72.50;;;;;;5075282;28;19928;-67
2023/10/03 11:35:15;;;;;;;;;;;21.50;72.50;;;;;;5068928;28;19932;-67
2023/10/03 11:37:44;;;;;;;;;;;21.50;72.60;;;;;;5073486;28;19928;-68
2023/10/03 11:42:51;;;;;;;;;;;21.50;72.70;;;;;;5092963;27;19926;-70
2023/10/03 11:45:19;;;;;;;;;;;21.50;72.80;;;;;;5090870;28;19931;-69
2023/10/03 11:47:56;;;;;;;;;;;21.50;72.90;;;;;;5093708;28;19928;-69
2023/10/03 11:50:22;;;;;;;;;;;21.50;73.00;;;;;;5095991;28;20332;-66
2023/10/03 11:52:48;;;;;;;;;;;21.50;73.80;;;;;;5094797;28;19931;-68
2023/10/03 11:55:15;;;;;;;;;;;21.40;73.20;;;;;;5090832;28;19928;-66
2023/10/03 11:57:40;;;;;;;;;;;21.50;73.40;;;;;;5092956;28;20519;-65
2023/10/03 12:00:14;;;;;;;;;;;21.40;73.40;;;;;;5085106;28;19928;-64
2023/10/03 12:02:40;;;;;;;;;;;21.40;73.50;;;;;;5092006;28;19928;-66
2023/10/03 12:05:06;;;;;;;;;;;21.40;73.50;;;;;;5092993;28;20017;-67
2023/10/03 12:07:32;;;;;;;;;;;21.40;73.60;;;;;;5084016;28;19976;-66
2023/10/03 12:09:59;;;;;;;;;;;21.40;73.50;;;;;;5081833;28;20101;-70
2023/10/03 12:12:27;;;;;;;;;;;21.40;73.30;;;;;;5085205;28;19928;-71
2023/10/03 12:14:54;;;;;;;;;;;21.40;73.20;;;;;;5087673;28;19946;-68
2023/10/03 12:17:20;;;;;;;;;;;21.30;73.10;;;;;;5086986;28;19931;-70
2023/10/03 12:19:47;;;;;;;;;;;21.30;73.10;;;;;;5087776;28;19925;-70
2023/10/03 12:22:13;;;;;;;;;;;21.30;73.10;;;;;;5095780;28;20785;-70
2023/10/03 12:24:38;;;;;;;;;;;21.30;73.00;;;;;;5094133;28;19931;-71
2023/10/03 12:27:05;;;;;;;;;;;21.30;73.00;;;;;;5090072;28;20434;-71
2023/10/03 12:29:32;;;;;;;;;;;21.30;72.90;;;;;;5091362;28;19928;-68
2023/10/03 12:31:58;;;;;;;;;;;21.30;72.90;;;;;;5090615;28;20268;-68
2023/10/03 12:34:25;;;;;;;;;;;21.30;73.00;;;;;;5095363;28;19931;-74
2023/10/03 12:36:51;;;;;;;;;;;21.30;73.00;;;;;;5090759;28;20024;-70
2023/10/03 12:39:18;;;;;;;;;;;21.30;73.10;;;;;;5088420;28;19940;-71
2023/10/03 12:41:46;;;;;;;;;;;21.30;73.20;;;;;;5086791;28;19935;-73
2023/10/03 12:44:12;;;;;;;;;;;21.30;73.30;;;;;;5085965;28;20302;-67
2023/10/03 12:46:39;;;;;;;;;;;21.30;73.40;;;;;;5089547;28;19921;-69
2023/10/03 12:49:07;;;;;;;;;;;21.30;73.50;;;;;;5100422;28;20414;-68
2023/10/03 12:51:32;;;;;;;;;;;21.30;73.60;;;;;;5089148;28;19932;-70
2023/10/03 12:53:58;;;;;;;;;;;21.30;73.70;;;;;;5075501;28;19946;-69
2023/10/03 12:56:24;;;;;;;;;;;21.30;73.80;;;;;;5070845;28;20019;-68
2023/10/03 12:58:50;;;;;;;;;;;21.30;73.90;;;;;;5062244;28;20441;-69
2023/10/03 13:01:15;;;;;;;;;;;21.30;74.00;;;;;;5070913;28;19928;-68
2023/10/03 13:03:42;;;;;;;;;;;21.30;74.00;;;;;;5073301;28;20411;-69
2023/10/03 13:06:08;;;;;;;;;;;21.30;74.10;;;;;;5074491;28;19936;-68
2023/10/03 13:08:34;;;;;;;;;;;21.30;74.00;;;;;;5076254;28;20284;-68
2023/10/03 13:11:05;;;;;;;;;;;21.30;73.90;;;;;;5074761;28;19931;-67
2023/10/03 13:13:31;;;;;;;;;;;21.30;73.90;;;;;;5072636;28;20462;-68
2023/10/03 13:15:57;;;;;;;;;;;21.30;73.80;;;;;;5102673;27;19960;-68
2023/10/03 13:18:23;;;;;;;;;;;21.30;73.80;;;;;;5078801;28;19927;-67
2023/10/03 13:20:49;;;;;;;;;;;21.30;73.80;;;;;;5084123;28;20336;-66
2023/10/03 13:23:15;;;;;;;;;;;21.30;73.90;;;;;;5085759;28;19927;-64
2023/10/03 13:25:41;;;;;;;;;;;21.30;73.70;;;;;;5086171;28;19920;-66
2023/10/03 13:28:10;;;;;;;;;;;21.30;73.80;;;;;;5086731;28;19927;-65
2023/10/03 13:30:37;;;;;;;;;;;21.30;73.70;;;;;;5107580;27;19931;-65
2023/10/03 13:33:03;;;;;;;;;;;21.30;73.40;;;;;;5086043;28;19926;-65
2023/10/03 13:35:30;;;;;;;;;;;21.30;73.30;;;;;;5091787;28;19920;-66
2023/10/03 13:37:56;;;;;;;;;;;21.30;72.80;;;;;;5090279;28;19927;-66
2023/10/03 13:40:21;;;;;;;;;;;21.30;72.70;;;;;;5087382;28;19924;-65
2023/10/03 13:42:48;;;;;;;;;;;21.20;72.80;;;;;;5093017;28;19932;-66
2023/10/03 13:45:14;;;;;;;;;;;21.30;72.90;;;;;;5091646;28;19927;-65
2023/10/03 13:47:41;;;;;;;;;;;21.30;72.90;;;;;;5102028;28;20008;-65
2023/10/03 13:50:09;;;;;;;;;;;21.30;72.70;;;;;;5096591;28;19920;-64
2023/10/03 13:52:37;;;;;;;;;;;21.30;72.60;;;;;;5091574;28;19935;-64
2023/10/03 13:55:06;;;;;;;;;;;21.30;72.60;;;;;;5104091;27;19919;-65
2023/10/03 13:57:34;;;;;;;;;;;21.30;72.40;;;;;;5087893;28;19935;-64
2023/10/03 14:00:00;;;;;;;;;;;21.40;72.40;;;;;;5089501;28;20014;-66
2023/10/03 14:02:25;;;;;;;;;;;21.30;72.30;;;;;;5089592;28;20615;-66
2023/10/03 14:04:51;;;;;;;;;;;21.30;72.10;;;;;;5092160;28;20027;-66
2023/10/03 14:07:16;;;;;;;;;;;21.30;72.10;;;;;;5089727;28;20509;-66
2023/10/03 14:09:42;;;;;;;;;;;21.30;72.00;;;;;;5091219;28;19966;-66
2023/10/03 14:12:08;;;;;;;;;;;21.30;72.00;;;;;;5099302;28;20278;-65
2023/10/03 14:14:33;;;;;;;;;;;21.30;71.90;;;;;;5090782;28;19981;-66
2023/10/03 14:17:00;;;;;;;;;;;21.30;71.90;;;;;;5090495;28;19931;-68
2023/10/03 14:19:27;;;;;;;;;;;21.30;71.80;;;;;;5086032;28;19928;-68
2023/10/03 14:21:52;;;;;;;;;;;21.30;71.80;;;;;;5087786;28;20354;-67
2023/10/03 14:24:18;;;;;;;;;;;21.30;71.70;;;;;;5085277;28;19959;-68
2023/10/03 14:26:43;;;;;;;;;;;21.30;71.70;;;;;;5092511;28;20010;-68
2023/10/03 14:29:09;;;;;;;;;;;21.30;71.70;;;;;;5090654;28;19920;-68
2023/10/03 14:31:35;;;;;;;;;;;21.20;71.60;;;;;;5093560;28;19920;-72
2023/10/03 14:34:01;;;;;;;;;;;21.20;71.70;;;;;;5095677;28;19927;-68